Melcher, Iowa
Current Conditions -  °F | °C
As of 8:55 AM on Monday 22 Dec 2014 (Local Time) from KOXV Reporting Station
Unknown Precip Unknown Precip  
Wind Chill: 32°   Ceiling: 2400
Heat Index: 39°   Visibility: 3mi
Dew Point: 36°   Wind: 10mph
Humidity: 87%   Direction: 140°SE
Pressure: 29.63"   Gusts: 17mph
Location:  41.22°N, 93.24°W
Report Text: KOXV 221455Z AUTO 14009G15KT 3SM -UP FEW012 SCT018 OVC024 04/02 A2963 RMK AO2 P0001
Loading
Personal Weather Stations






























Interactive Weather Map New forecast layout! Learn more

10-Day Weather Forecast

Advertisements
Track Severe Weather on mobile